PROFILE

 METAR AND TAF INFORMATION
ADDS - METARS form results

(0555 UTC 19 July 2019)
http://aviationweather.gov/metar/data/
 
LFRB 190530Z AUTO 21014KT 7000 BKN009 OVC015 17/15 Q1014 TEMPO 22016G26KT 3000 -RADZ OVC004
LFRB 190500Z AUTO 21016KT 9999 BKN016 OVC022 17/15 Q1014 TEMPO 22016G26KT 3000 -RADZ OVC004
TAF LFRB 190500Z 1906/2012 22015KT 9999 BKN016 TEMPO 1906/2003 22016G26KT 3000 -RADZ OVC004 PROB30 TEMPO 1920/2003 1200 TSRA BKN010CB BECMG 2006/2009 SCT025 

 AIRPORT MAP

 RUNWAY INFORMATION
Runway 07L Runway length 2297 ft Runway width 59 ft
Runway elevation 311 ft Runway displaced threshold 0 ft Runway heading 71
Runway 25R Runway length 2297 ft Runway width 59 ft
Runway elevation 317 ft Runway displaced threshold 0 ft Runway heading 251
Runway 07R Runway length 10171 ft Runway width 148 ft
Runway elevation 289 ft Runway displaced threshold 0 ft Runway heading 71
Runway 25L Runway length 10171 ft Runway width 148 ft
Runway elevation 312 ft Runway displaced threshold 984 ft Runway heading 251

 AIRPORT FREQUENCIES
Type APP Name LANDI APP Frequency 122.4 MHZ
Type APP Name IROISE APP Frequency 135.825 MHZ
Type ATIS Name ATIS Frequency 129.35 MHZ
Type TWR Name TWR Frequency 120.1 MHZ

 AIRPORT NEAR NAVIGATION AIDS
Type NDB Name Guipavas Frequency 387 KHZ
Type NDB Name Guipavas Frequency 338 KHZ